AirNav   Air Wisconsin pilot careers
 
 1102 users online  

KTNT Dade-Collier Training and Transition Airport
Miami, Florida, USA

GOING TO MIAMI?


FAA INFORMATION EFFECTIVE 26 APRIL 2018

Location

FAA Identifier: TNT
Lat/Long: 25-51-42.5000N / 080-53-49.2000W
25-51.708333N / 080-53.820000W
25.8618056 / -80.8970000
(estimated)
Elevation: 12.7 ft. / 3.9 m (surveyed)
Variation: 05W (2005)
From city: 36 miles W of MIAMI, FL
Time zone: UTC -4 (UTC -5 during Standard Time)
Zip code: 34141

Airport Operations

Airport use: Open to the public, ARPT CLSD TO PUBLIC EXCP BY ARRANGEMENT WITH MIAMI-DADE AVIATION DEPT MIAMI 305-869-1660.
Control tower: no
ARTCC: MIAMI CENTER
FSS: MIAMI FLIGHT SERVICE STATION
NOTAMs facility: MIA (NOTAM-D service available)
Attendance: CONTINUOUS
Wind indicator: lighted
Segmented circle: yes
Beacon: white-green (lighted land airport)
Operates sunset to sunrise.
Landing fee: yes

Airport Communications

CTAF/UNICOM: 123.0
WX AWOS-3: 119.075 ((239) 695-9198)
MIAMI APPROACH: 128.6
MIAMI DEPARTURE: 128.6
  • APCH/DEP SVC PRVDD BY MIAMI ATCT ON FREQS 128.6/306.975

Nearby radio navigation aids

VOR radial/distance  VOR name  Freq  Var
DHPr281/29.8DOLPHIN VORTAC113.9004W

 
NDB name  Hdg/Dist  Freq  Var  ID
MONRY095/6.222705WTN - -.

Airport Services

Airframe service: NONE
Powerplant service: NONE
Bottled oxygen: NONE
Bulk oxygen: NONE

Runway Information

Runway 9/27

Dimensions: 10499 x 150 ft. / 3200 x 46 m
Surface: asphalt/porous friction courses, in good condition
Weight bearing capacity: 
Single wheel: 130.0
Double wheel: 200.0
Double tandem: 400.0
Dual double tandem: 800.0
RUNWAY 9  RUNWAY 27
Latitude: 25-51.708232N25-51.707022N
Longitude: 080-54.777252W080-52.861753W
Elevation: 12.6 ft.12.4 ft.
Traffic pattern: leftright
Runway heading: 095 magnetic, 090 true275 magnetic, 270 true
Markings: precision, in fair conditionprecision, in fair condition
Touchdown point: yes, no lightsyes, no lights
Instrument approach: ILS
Obstructions: 4 ft. brush, 200 ft. from runway, 295 ft. right of centerline
+4' BRUSH, 13' FM RY END, 295' R OF CNTRLN.
4 ft. brush, 200 ft. from runway, 327 ft. right of centerline
+4' BRUSH, 56' FM RY END, 327' R OF CNTRLN.

Airport Ownership and Management from official FAA records

Ownership: Publicly-owned
Owner: MIAMI-DADE COUNTY
MIAMI-DADE AVIATION DEPARTMENT, P.O. BOX 025504
MIAMI, FL 33102-5504
Phone (305) 876-0464
Manager: NELSON MEJIAS
14201 NORTHWEST LEJEUNE ROAD
OPA-LOCKA, FL 33054
Phone (305) 869-1662
AIRPORT PHYSICAL ADDRESS: 54757 EAST TAMIAMI TRAIL, OCHOPPI, FL 34141 239-695-3300, FAX: 305-876-0565

Airport Operational Statistics

Aircraft operations: avg 40/day *
100% transient general aviation
* for 12-month period ending 26 October 2016

Additional Remarks

A100 ACR TRNG OPNS ONLY.
THREE 8IN WELLS FLUSH MTD BTN RWY AND TWY.
FEE FOR USE FOR ACFT OVER 12500 LBS.
MAEW IN BUFFER ISLAND BTN RY 09/27 & TWY.
WILDLIFE OCCASIONALLY ON & INVOF ARPT.
BE ALERT TO LOW FLYING NATIONAL PARK SVC ACFT ALL QUADRANTS.

Instrument Procedures

NOTE: All procedures below are presented as PDF files. If you need a reader for these files, you should download the free Adobe Reader.

NOT FOR NAVIGATION. Please procure official charts for flight.
FAA instrument procedures published for use from 26 April 2018 at 901Z to 24 May 2018 at 0900Z.

 
IAPs - Instrument Approach Procedures
RNAV (GPS) RWY 09 **CHANGED**   download (226KB)

Other nearby airports with instrument procedures:

KTMB - Miami Executive Airport (28 nm SE)
X51 - Miami Homestead General Aviation Airport (29 nm SE)
KMIA - Miami International Airport (33 nm E)
KOPF - Miami-Opa Locka Executive Airport (34 nm E)
KHST - Homestead Air Reserve Base (36 nm SE)
 
Loc | Ops | Rwys | IFR | FBO | Links
Com | Nav | Svcs | Stats | Notes


 
Area around KTNT (Dade-Collier Training and Transition Airport)
 
Road maps at: MapQuest Bing Google
 
Aerial photo
WARNING: Photo may not be current or correct
Aerial photo of KTNT (Dade-Collier Training and Transition Airport)
Do you have a better or more recent aerial photo of Dade-Collier Training and Transition Airport that you would like to share? If so, please send us your photo.

 
Sectional chart

 
Airport distance calculator
Flying to Dade-Collier Training and Transition Airport? Find the distance to fly.

From to KTNT

Sunrise and sunset
Times for 24-May-2018
 Local
(UTC-4)
 Zulu
(UTC)
Morning civil twilight06:1010:10
Sunrise06:3510:35
Sunset20:0600:06
Evening civil twilight20:3100:31

Current date and time
Zulu (UTC)  24-May-2018 12:46:17
Local (UTC-4)  24-May-2018 08:46:17
 
METAR
KTMB 
28nm SE 
241153Z 11005KT 10SM CLR 26/23 A3006 RMK AO2 SLP177 T02610228 10261 20244 53008
KMIA 
32nm E 
241153Z 12005KT 10SM FEW017 SCT050 SCT160 OVC250 26/24 A3006 RMK AO2 SLP179 60000 T02610239 10261 20244 53008 $
KOPF 
33nm E 
241153Z 12005KT 10SM FEW022 FEW036 SCT050 26/24 A3007 RMK AO2 RAB19E28 SLP183 P0000 60000 T02610239 10261 20239 53008
KHWO 
37nm E 
241153Z 09004KT 10SM FEW020 27/23 A3008 RMK AO2 SLP185 T02720233 10272 20250 53009
KHST 
37nm SE 
241156Z AUTO 09004KT 10SM CLR 26/23 A3005 RMK AO2 SLP179 T02610229 10261 20243 53008
KFLL 
42nm E 
241153Z 12008KT 10SM FEW020 FEW100 BKN250 27/24 A3006 RMK AO2 SLP177 60009 70009 T02670244 10267 20244 53009
KMKY 
43nm W 
241156Z AUTO 04004KT 7SM CLR 22/22 A3007 RMK AO2 SLP182 70126 T02220222 10228 20217 53009
KFXE 
43nm NE 
241224Z 10009KT 10SM FEW020 SCT028 27/24 A3006 RMK AO2 T02720239
KIMM 
44nm NW 
241235Z AUTO 07006KT 9SM CLR 25/23 A3009 RMK AO2
KPMP 
48nm NE 
241153Z 12008KT 10SM FEW020 27/22 A3007 RMK AO2 SLP182 T02720222 10272 20261 53010
TAF
KTMB 
28nm SE 
241134Z 2412/2512 10006KT P6SM FEW035 SCT060 BKN150 FM241400 13010KT P6SM VCSH FEW025 BKN035 BKN070 FM250000 11003KT P6SM SCT050 BKN100 FM250400 00000KT P6SM VCSH BKN035
KMIA 
32nm E 
241134Z 2412/2518 10004KT P6SM FEW040 SCT070 BKN150 FM241400 13010KT P6SM VCSH FEW025 BKN035 BKN100 FM250000 12005KT P6SM SCT050 BKN100 FM250500 11003KT P6SM VCSH BKN035 FM251400 11008KT P6SM VCSH BKN035
KOPF 
33nm E 
241134Z 2412/2512 07004KT P6SM FEW040 SCT090 SCT150 FM241400 12010KT P6SM VCSH FEW025 BKN035 BKN070 FM250000 12005KT P6SM SCT050 BKN100 FM250500 00000KT P6SM VCSH BKN035
NOTAMs
Click for the latest NOTAMs
NOTAMs are issued by the DoD/FAA and will open in a separate window not controlled by AirNav.

 

 
 

Would you like to see your business listed on this page?

 If your business provides an interesting product or service to pilots, flight crews, aircraft, or users of the Dade-Collier Training and Transition Airport, you should consider listing it here.  To start the listing process, click on the button below
 
Add a business
 

Other Pages about Dade-Collier Training and Transition Airport

Update a link
 
Copyright © AirNav, LLC. All rights reserved. Privacy Policy  Contact